Terminal Aerodrome Forecast
Issued by NWS

Home | Current Version | Previous Version | Text Only | Print | Product List | Glossary On
Versions: 1 2 3 4 5 6 7 8 9 10 11 12 13 14 15 16 17 18 19 20 21 22 23 24 25 26 27 28 29 30 31
000
FTUS41 KBUF 282111 AAA
TAFJHW
TAF AMD
KJHW 282111Z 2821/2918 31012KT P6SM VCSH SCT040
     FM290300 28004KT P6SM SCT025 BKN040
     FM290600 35003KT 3SM BR SCT007
     FM291100 01005KT P6SM SCT015
     FM291500 36007KT P6SM SKC
      AMD LTD TO CLD VIS AND WIND=

USA.gov is the U.S. government's official web portal to all federal, state and local government web resources and services.